Souda — SVBH5 — position and weather

sailwx.info

Track history (hours):
 
Tides and Currents Weather Stations Pressure Air Temp Water Temp Dewpoint Dewpoint Depression Visibility Wind Speed Wind Dir Waves Ship Positions

Souda

Last reported at 2017-Feb-19 13:31 UTC. Time now 2017-Feb-19 14:25 UTC.
Position N 37°58' E 023°35'.

Length 88 m; draft 4.8 m.

Type: Tanker. MMSI: 241109000.

Date/timePositionNaut miles runAvg speedWind from/ knotsBaromVisibWave heightAir tempDewpointWater temp
2017-Feb-19 13:31N 37°58' E 023°35'0 0.0
2017-Feb-19 12:31N 37°58' E 023°35'0 0.0
2017-Feb-19 11:31N 37°58' E 023°35'0 0.0
2017-Feb-19 10:31N 37°58' E 023°35'0 0.0
2017-Feb-19 09:25N 37°58' E 023°35'0 0.0
2017-Feb-19 08:31N 37°58' E 023°35'0 0.0
2017-Feb-19 07:31N 37°58' E 023°35'0 0.0
2017-Feb-19 06:31N 37°58' E 023°35'0 0.0
2017-Feb-19 05:31N 37°58' E 023°35'0 0.0
2017-Feb-19 04:31N 37°58' E 023°35'0 0.0
2017-Feb-19 03:31N 37°58' E 023°35'0 0.0
2017-Feb-19 02:31N 37°58' E 023°35'0 0.0
2017-Feb-19 01:31N 37°58' E 023°35'0 0.0
2017-Feb-19 00:31N 37°58' E 023°35'0 0.0
2017-Feb-18 23:31N 37°58' E 023°35'0 0.0
2017-Feb-18 22:31N 37°58' E 023°35'0 0.0
2017-Feb-18 21:31N 37°58' E 023°35'0 0.0
2017-Feb-18 20:31N 37°58' E 023°35'0 0.0
2017-Feb-18 19:31N 37°58' E 023°35'0 0.0
2017-Feb-18 18:31N 37°58' E 023°35'0 0.0
2017-Feb-18 17:31N 37°58' E 023°35'0 0.0
2017-Feb-18 16:31N 37°58' E 023°35'0 0.0
2017-Feb-18 15:31N 37°58' E 023°35'0 0.0
2017-Feb-18 14:31N 37°58' E 023°35'0 0.0
2017-Feb-18 13:31N 37°58' E 023°35'0 0.0
2017-Feb-18 12:31N 37°58' E 023°35'0 0.0
2017-Feb-18 11:31N 37°58' E 023°35'0 0.0
2017-Feb-18 10:31N 37°58' E 023°35'0 0.0
2017-Feb-18 09:34N 37°58' E 023°35'0 0.0
2017-Feb-18 08:34N 37°58' E 023°35'0 0.0
2017-Feb-18 07:31N 37°58' E 023°35'0 0.0
2017-Feb-18 06:31N 37°58' E 023°35'0 0.0
2017-Feb-18 05:30N 37°58' E 023°35'0 0.0
2017-Feb-18 04:31N 37°58' E 023°35'0 0.0
2017-Feb-18 03:34N 37°58' E 023°35'0 0.0
2017-Feb-18 02:34N 37°58' E 023°35'0 0.0
2017-Feb-18 01:31N 37°58' E 023°35'0 0.0
2017-Feb-18 00:31N 37°58' E 023°35'0 0.0
2017-Feb-17 23:31N 37°58' E 023°35'0 0.0
2017-Feb-17 22:34N 37°58' E 023°35'0 0.0
2017-Feb-17 21:33N 37°58' E 023°35'0 0.0
2017-Feb-17 20:31N 37°58' E 023°35'0 0.0
2017-Feb-17 19:33N 37°58' E 023°35'0 0.0
2017-Feb-17 18:34N 37°58' E 023°35'0 0.0
2017-Feb-17 17:34N 37°58' E 023°35'0 0.0
2017-Feb-17 16:31N 37°58' E 023°35'2 2.3
2017-Feb-17 15:33N 37°55' E 023°35'0 0.2
2017-Feb-17 14:33N 37°55' E 023°35'2 1.7
2017-Feb-17 13:31N 37°54' E 023°33'0 0.0
2017-Feb-17 12:31N 37°54' E 023°33'0 0.0
2017-Feb-17 11:31N 37°54' E 023°33'0 0.0
2017-Feb-17 10:31N 37°54' E 023°33'0 0.1
2017-Feb-17 09:31N 37°54' E 023°33'1 1.5
2017-Feb-17 08:33N 37°55' E 023°35'0 0.1
2017-Feb-17 07:34N 37°55' E 023°35'7 6.9
2017-Feb-17 06:33N 37°50' E 023°29'9 8.7
2017-Feb-17 05:33N 37°51' E 023°18'9 9.2
2017-Feb-17 04:33N 37°54' E 023°07'2 0.1
2017-Feb-16 09:16N 37°55' E 023°05'3 4.5
2017-Feb-16 08:34N 37°54' E 023°09'10 9.5
2017-Feb-16 07:34N 37°52' E 023°21'9 9.0
2017-Feb-16 06:33N 37°50' E 023°32'7 7.3
2017-Feb-16 05:32N 37°58' E 023°35'0 0.0
2017-Feb-16 04:32N 37°58' E 023°35'0 0.0
2017-Feb-16 03:32N 37°58' E 023°35'0 0.0
2017-Feb-16 02:32N 37°58' E 023°35'0 0.0
2017-Feb-16 01:32N 37°58' E 023°35'0 0.0
2017-Feb-16 00:32N 37°58' E 023°35'0 0.0
2017-Feb-15 23:32N 37°58' E 023°35'0 0.0
2017-Feb-15 22:32N 37°58' E 023°35'0 0.0
2017-Feb-15 21:32N 37°58' E 023°35'0 0.0
2017-Feb-15 20:32N 37°58' E 023°35'0 0.0
2017-Feb-15 19:32N 37°58' E 023°35'0 0.0
2017-Feb-15 18:29N 37°58' E 023°35'0 0.0
2017-Feb-15 17:32N 37°58' E 023°35'0 0.0
2017-Feb-15 16:32N 37°58' E 023°35'0 0.0
2017-Feb-15 15:32N 37°58' E 023°35'0 0.0
2017-Feb-15 14:32N 37°58' E 023°35'0 0.0
2017-Feb-15 13:32N 37°58' E 023°35'0 0.0
2017-Feb-15 12:32N 37°58' E 023°35'0 0.0
2017-Feb-15 11:32N 37°58' E 023°35'0 0.0
2017-Feb-15 10:32N 37°58' E 023°35'0 0.0
2017-Feb-15 09:32N 37°58' E 023°35'0 0.0
2017-Feb-15 08:32N 37°58' E 023°35'0 0.0
2017-Feb-15 07:32N 37°58' E 023°35'0 0.0
2017-Feb-15 06:32N 37°58' E 023°35'0 0.0
2017-Feb-15 05:32N 37°58' E 023°35'0 0.0
2017-Feb-15 04:32N 37°58' E 023°35'0 0.0
2017-Feb-15 03:32N 37°58' E 023°35'0 0.0
2017-Feb-15 02:32N 37°58' E 023°35'0 0.0
2017-Feb-15 01:32N 37°58' E 023°35'0 0.0
2017-Feb-15 00:32N 37°58' E 023°35'0 0.0
2017-Feb-14 23:29N 37°58' E 023°35'0 0.0
2017-Feb-14 22:32N 37°58' E 023°35'0 0.0
2017-Feb-14 21:32N 37°58' E 023°35'0 0.0
2017-Feb-14 20:32N 37°58' E 023°35'0 0.0
2017-Feb-14 19:29N 37°58' E 023°35'0 0.0
2017-Feb-14 18:32N 37°58' E 023°35'0 0.0
2017-Feb-14 17:32N 37°58' E 023°35'0 0.0
2017-Feb-14 16:32N 37°58' E 023°35'0 0.0
2017-Feb-14 15:32N 37°58' E 023°35'2 1.9
2017-Feb-14 14:33N 37°56' E 023°35'1 0.8
2017-Feb-14 13:34N 37°55' E 023°34'1 0.9
2017-Feb-14 12:33N 37°55' E 023°33'0 0.0
2017-Feb-14 11:33N 37°55' E 023°33'0 0.0
2017-Feb-14 10:33N 37°55' E 023°33'0 0.0
2017-Feb-14 09:33N 37°55' E 023°33'0 0.0
2017-Feb-14 08:33N 37°55' E 023°33'0 0.0
2017-Feb-14 07:33N 37°55' E 023°33'0 0.0
2017-Feb-14 06:33N 37°55' E 023°33'0 0.0
2017-Feb-14 05:33N 37°55' E 023°33'0 0.0
2017-Feb-14 04:33N 37°55' E 023°33'0 0.0
2017-Feb-14 03:33N 37°55' E 023°33'0 0.0
2017-Feb-14 02:33N 37°55' E 023°33'0 0.0
2017-Feb-14 01:33N 37°55' E 023°33'0 0.0
2017-Feb-14 00:33N 37°55' E 023°33'0 0.0
2017-Feb-13 23:33N 37°55' E 023°33'0 0.0
2017-Feb-13 22:33N 37°55' E 023°33'0 0.0
2017-Feb-13 21:33N 37°55' E 023°33'0 0.0
2017-Feb-13 20:33N 37°55' E 023°33'0 0.0
2017-Feb-13 19:33N 37°55' E 023°33'0 0.0
2017-Feb-13 18:33N 37°55' E 023°33'0 0.0
2017-Feb-13 17:33N 37°55' E 023°33'0 0.0
2017-Feb-13 16:33N 37°55' E 023°33'0 0.0
2017-Feb-13 15:33N 37°55' E 023°33'0 0.0
2017-Feb-13 14:33N 37°55' E 023°33'0 0.0
2017-Feb-13 13:33N 37°55' E 023°33'0 0.0
2017-Feb-13 12:33N 37°55' E 023°33'0 0.0
2017-Feb-13 11:33N 37°55' E 023°33'0 0.0
2017-Feb-13 10:33N 37°55' E 023°33'0 0.1
2017-Feb-13 09:33N 37°55' E 023°33'1 0.8
2017-Feb-13 08:33N 37°54' E 023°32'8 8.4
2017-Feb-13 07:33N 37°51' E 023°23'8 8.2
2017-Feb-13 06:33N 37°52' E 023°13'6 0.3
2017-Feb-12 11:33N 37°55' E 023°06'9 8.9
2017-Feb-12 10:33N 37°52' E 023°16'9 8.9
2017-Feb-12 09:33N 37°50' E 023°27'8 8.2
2017-Feb-12 08:33N 37°55' E 023°36'2 0.0
2017-Feb-10 10:20N 37°58' E 023°35'0 0.0
2017-Feb-10 06:33N 37°58' E 023°35'3 3.1
2017-Feb-10 05:33N 37°54' E 023°35'1 1.2
2017-Feb-10 04:33N 37°53' E 023°35'7 6.6
2017-Feb-10 03:33N 37°50' E 023°27'9 8.7
2017-Feb-10 02:34N 37°52' E 023°17'8 8.5
2017-Feb-10 01:34N 37°54' E 023°06'1 0.1
2017-Feb-09 16:33N 37°55' E 023°06'0 0.1
2017-Feb-09 15:33N 37°55' E 023°06'0 0.1
2017-Feb-09 14:33N 37°55' E 023°06'0 0.0
2017-Feb-09 13:33N 37°55' E 023°06'  
Track history (hours):
 
Tides and Currents Weather Stations Pressure Air Temp Water Temp Dewpoint Dewpoint Depression Visibility Wind Speed Wind Dir Waves Ship Positions

Souda

Last reported at 2017-Feb-19 13:31 UTC. Time now 2017-Feb-19 14:25 UTC.
Position N 37°58' E 023°35'.

Length 88 m; draft 4.8 m.

Type: Tanker. MMSI: 241109000.

Date/timePositionNaut miles runAvg speedWind from/ knotsBaromVisibWave heightAir tempDewpointWater temp
2017-Feb-19 13:31N 37°58' E 023°35'0 0.0
2017-Feb-19 12:31N 37°58' E 023°35'0 0.0
2017-Feb-19 11:31N 37°58' E 023°35'0 0.0
2017-Feb-19 10:31N 37°58' E 023°35'0 0.0
2017-Feb-19 09:25N 37°58' E 023°35'0 0.0
2017-Feb-19 08:31N 37°58' E 023°35'0 0.0
2017-Feb-19 07:31N 37°58' E 023°35'0 0.0
2017-Feb-19 06:31N 37°58' E 023°35'0 0.0
2017-Feb-19 05:31N 37°58' E 023°35'0 0.0
2017-Feb-19 04:31N 37°58' E 023°35'0 0.0
2017-Feb-19 03:31N 37°58' E 023°35'0 0.0
2017-Feb-19 02:31N 37°58' E 023°35'0 0.0
2017-Feb-19 01:31N 37°58' E 023°35'0 0.0
2017-Feb-19 00:31N 37°58' E 023°35'0 0.0
2017-Feb-18 23:31N 37°58' E 023°35'0 0.0
2017-Feb-18 22:31N 37°58' E 023°35'0 0.0
2017-Feb-18 21:31N 37°58' E 023°35'0 0.0
2017-Feb-18 20:31N 37°58' E 023°35'0 0.0
2017-Feb-18 19:31N 37°58' E 023°35'0 0.0
2017-Feb-18 18:31N 37°58' E 023°35'0 0.0
2017-Feb-18 17:31N 37°58' E 023°35'0 0.0
2017-Feb-18 16:31N 37°58' E 023°35'0 0.0
2017-Feb-18 15:31N 37°58' E 023°35'0 0.0
2017-Feb-18 14:31N 37°58' E 023°35'0 0.0
2017-Feb-18 13:31N 37°58' E 023°35'0 0.0
2017-Feb-18 12:31N 37°58' E 023°35'0 0.0
2017-Feb-18 11:31N 37°58' E 023°35'0 0.0
2017-Feb-18 10:31N 37°58' E 023°35'0 0.0
2017-Feb-18 09:34N 37°58' E 023°35'0 0.0
2017-Feb-18 08:34N 37°58' E 023°35'0 0.0
2017-Feb-18 07:31N 37°58' E 023°35'0 0.0
2017-Feb-18 06:31N 37°58' E 023°35'0 0.0
2017-Feb-18 05:30N 37°58' E 023°35'0 0.0
2017-Feb-18 04:31N 37°58' E 023°35'0 0.0
2017-Feb-18 03:34N 37°58' E 023°35'0 0.0
2017-Feb-18 02:34N 37°58' E 023°35'0 0.0
2017-Feb-18 01:31N 37°58' E 023°35'0 0.0
2017-Feb-18 00:31N 37°58' E 023°35'0 0.0
2017-Feb-17 23:31N 37°58' E 023°35'0 0.0
2017-Feb-17 22:34N 37°58' E 023°35'0 0.0
2017-Feb-17 21:33N 37°58' E 023°35'0 0.0
2017-Feb-17 20:31N 37°58' E 023°35'0 0.0
2017-Feb-17 19:33N 37°58' E 023°35'0 0.0
2017-Feb-17 18:34N 37°58' E 023°35'0 0.0
2017-Feb-17 17:34N 37°58' E 023°35'0 0.0
2017-Feb-17 16:31N 37°58' E 023°35'2 2.3
2017-Feb-17 15:33N 37°55' E 023°35'0 0.2
2017-Feb-17 14:33N 37°55' E 023°35'2 1.7
2017-Feb-17 13:31N 37°54' E 023°33'0 0.0
2017-Feb-17 12:31N 37°54' E 023°33'0 0.0
2017-Feb-17 11:31N 37°54' E 023°33'0 0.0
2017-Feb-17 10:31N 37°54' E 023°33'0 0.1
2017-Feb-17 09:31N 37°54' E 023°33'1 1.5
2017-Feb-17 08:33N 37°55' E 023°35'0 0.1
2017-Feb-17 07:34N 37°55' E 023°35'7 6.9
2017-Feb-17 06:33N 37°50' E 023°29'9 8.7
2017-Feb-17 05:33N 37°51' E 023°18'9 9.2
2017-Feb-17 04:33N 37°54' E 023°07'2 0.1
2017-Feb-16 09:16N 37°55' E 023°05'3 4.5
2017-Feb-16 08:34N 37°54' E 023°09'10 9.5
2017-Feb-16 07:34N 37°52' E 023°21'9 9.0
2017-Feb-16 06:33N 37°50' E 023°32'7 7.3
2017-Feb-16 05:32N 37°58' E 023°35'0 0.0
2017-Feb-16 04:32N 37°58' E 023°35'0 0.0
2017-Feb-16 03:32N 37°58' E 023°35'0 0.0
2017-Feb-16 02:32N 37°58' E 023°35'0 0.0
2017-Feb-16 01:32N 37°58' E 023°35'0 0.0
2017-Feb-16 00:32N 37°58' E 023°35'0 0.0
2017-Feb-15 23:32N 37°58' E 023°35'0 0.0
2017-Feb-15 22:32N 37°58' E 023°35'0 0.0
2017-Feb-15 21:32N 37°58' E 023°35'0 0.0
2017-Feb-15 20:32N 37°58' E 023°35'0 0.0
2017-Feb-15 19:32N 37°58' E 023°35'0 0.0
2017-Feb-15 18:29N 37°58' E 023°35'0 0.0
2017-Feb-15 17:32N 37°58' E 023°35'0 0.0
2017-Feb-15 16:32N 37°58' E 023°35'0 0.0
2017-Feb-15 15:32N 37°58' E 023°35'0 0.0
2017-Feb-15 14:32N 37°58' E 023°35'0 0.0
2017-Feb-15 13:32N 37°58' E 023°35'0 0.0
2017-Feb-15 12:32N 37°58' E 023°35'0 0.0
2017-Feb-15 11:32N 37°58' E 023°35'0 0.0
2017-Feb-15 10:32N 37°58' E 023°35'0 0.0
2017-Feb-15 09:32N 37°58' E 023°35'0 0.0
2017-Feb-15 08:32N 37°58' E 023°35'0 0.0
2017-Feb-15 07:32N 37°58' E 023°35'0 0.0
2017-Feb-15 06:32N 37°58' E 023°35'0 0.0
2017-Feb-15 05:32N 37°58' E 023°35'0 0.0
2017-Feb-15 04:32N 37°58' E 023°35'0 0.0
2017-Feb-15 03:32N 37°58' E 023°35'0 0.0
2017-Feb-15 02:32N 37°58' E 023°35'0 0.0
2017-Feb-15 01:32N 37°58' E 023°35'0 0.0
2017-Feb-15 00:32N 37°58' E 023°35'0 0.0
2017-Feb-14 23:29N 37°58' E 023°35'0 0.0
2017-Feb-14 22:32N 37°58' E 023°35'0 0.0
2017-Feb-14 21:32N 37°58' E 023°35'0 0.0
2017-Feb-14 20:32N 37°58' E 023°35'0 0.0
2017-Feb-14 19:29N 37°58' E 023°35'0 0.0
2017-Feb-14 18:32N 37°58' E 023°35'0 0.0
2017-Feb-14 17:32N 37°58' E 023°35'0 0.0
2017-Feb-14 16:32N 37°58' E 023°35'0 0.0
2017-Feb-14 15:32N 37°58' E 023°35'2 1.9
2017-Feb-14 14:33N 37°56' E 023°35'1 0.8
2017-Feb-14 13:34N 37°55' E 023°34'1 0.9
2017-Feb-14 12:33N 37°55' E 023°33'0 0.0
2017-Feb-14 11:33N 37°55' E 023°33'0 0.0
2017-Feb-14 10:33N 37°55' E 023°33'0 0.0
2017-Feb-14 09:33N 37°55' E 023°33'0 0.0
2017-Feb-14 08:33N 37°55' E 023°33'0 0.0
2017-Feb-14 07:33N 37°55' E 023°33'0 0.0
2017-Feb-14 06:33N 37°55' E 023°33'0 0.0
2017-Feb-14 05:33N 37°55' E 023°33'0 0.0
2017-Feb-14 04:33N 37°55' E 023°33'0 0.0
2017-Feb-14 03:33N 37°55' E 023°33'0 0.0
2017-Feb-14 02:33N 37°55' E 023°33'0 0.0
2017-Feb-14 01:33N 37°55' E 023°33'0 0.0
2017-Feb-14 00:33N 37°55' E 023°33'0 0.0
2017-Feb-13 23:33N 37°55' E 023°33'0 0.0
2017-Feb-13 22:33N 37°55' E 023°33'0 0.0
2017-Feb-13 21:33N 37°55' E 023°33'0 0.0
2017-Feb-13 20:33N 37°55' E 023°33'0 0.0
2017-Feb-13 19:33N 37°55' E 023°33'0 0.0
2017-Feb-13 18:33N 37°55' E 023°33'0 0.0
2017-Feb-13 17:33N 37°55' E 023°33'0 0.0
2017-Feb-13 16:33N 37°55' E 023°33'0 0.0
2017-Feb-13 15:33N 37°55' E 023°33'0 0.0
2017-Feb-13 14:33N 37°55' E 023°33'0 0.0
2017-Feb-13 13:33N 37°55' E 023°33'0 0.0
2017-Feb-13 12:33N 37°55' E 023°33'0 0.0
2017-Feb-13 11:33N 37°55' E 023°33'0 0.0
2017-Feb-13 10:33N 37°55' E 023°33'0 0.1
2017-Feb-13 09:33N 37°55' E 023°33'1 0.8
2017-Feb-13 08:33N 37°54' E 023°32'8 8.4
2017-Feb-13 07:33N 37°51' E 023°23'8 8.2
2017-Feb-13 06:33N 37°52' E 023°13'6 0.3
2017-Feb-12 11:33N 37°55' E 023°06'9 8.9
2017-Feb-12 10:33N 37°52' E 023°16'9 8.9
2017-Feb-12 09:33N 37°50' E 023°27'8 8.2
2017-Feb-12 08:33N 37°55' E 023°36'2 0.0
2017-Feb-10 10:20N 37°58' E 023°35'0 0.0
2017-Feb-10 06:33N 37°58' E 023°35'3 3.1
2017-Feb-10 05:33N 37°54' E 023°35'1 1.2
2017-Feb-10 04:33N 37°53' E 023°35'7 6.6
2017-Feb-10 03:33N 37°50' E 023°27'9 8.7
2017-Feb-10 02:34N 37°52' E 023°17'8 8.5
2017-Feb-10 01:34N 37°54' E 023°06'1 0.1
2017-Feb-09 16:33N 37°55' E 023°06'0 0.1
2017-Feb-09 15:33N 37°55' E 023°06'0 0.1
2017-Feb-09 14:33N 37°55' E 023°06'0 0.0
2017-Feb-09 13:33N 37°55' E 023°06'  

Dump ship's entire track history